Latest Weather Observations for Casino

IDN60801

Issued at 9:32 pm EST Tuesday 28 April 2015 (issued every 30 minutes, with the page automatically refreshed every 10 minutes)

About weather observations | Map of weather stations | Latest weather observations for NSW | Other Formats
Station Details ID: 058208 Name: CASINO AIRPORT AWS Lat: -28.88 Lon: 153.06 Height: 20.9 m
Data from the previous 72 hours. | See also: Recent months at Casino
Date/Time
EST
Temp
°C
App
Temp
°C
Dew
Point
Rel
Hum
%
Delta-T
°C
Wind Press
QNH
hPa
Press
MSL
hPa
Rain
since 9 am
mm
Dir
 
Spd
km/h
Gust
km/h
Spd
kts
Gust
kts
28/09:30pm 10.7 9.1 8.6 87 1.0 W 7 11 4 6 1024.8 1024.7 0.0
28/09:00pm 11.2 11.0 8.9 86 1.1 CALM 0 0 0 0 1024.8 1024.7 0.0
28/08:30pm 12.3 11.1 10.4 88 1.0 WNW 7 9 4 5 1024.4 1024.3 0.0
28/08:00pm 11.2 10.6 8.8 85 1.2 NNW 2 7 1 4 1024.2 1024.1 0.0
28/07:30pm 11.7 10.7 8.7 82 1.5 SW 4 7 2 4 1023.7 1023.6 0.0
28/07:00pm 12.7 12.6 9.5 81 1.6 CALM 0 0 0 0 1023.5 1023.4 0.0
28/06:30pm 12.6 12.2 8.1 74 2.2 CALM 0 0 0 0 1023.1 1023.0 0.0
28/06:00pm 14.3 12.9 8.7 69 2.8 S 6 7 3 4 1022.7 1022.6 0.0
28/05:30pm 16.3 14.3 8.8 61 3.8 SE 9 11 5 6 1022.4 1022.3 0.0
28/05:00pm 19.1 16.4 9.0 52 5.3 SE 13 19 7 10 1022.1 1022.0 0.0
28/04:30pm 20.7 17.2 8.7 46 6.3 SE 17 22 9 12 1021.7 1021.6 0.0
28/04:00pm 21.6 17.7 8.5 43 6.9 SE 19 24 10 13 1021.5 1021.4 0.0
28/03:30pm 22.5 19.0 8.6 41 7.4 SE 17 24 9 13 1021.3 1021.2 0.0
28/03:00pm 22.8 20.1 10.3 45 6.8 ESE 15 22 8 12 1021.3 1021.2 0.0
28/02:30pm 21.8 20.4 9.0 44 6.8 SSE 6 11 3 6 1021.2 1021.1 0.0
28/02:00pm 23.6 21.2 8.8 39 7.9 SE 11 24 6 13 1021.1 1021.0 0.0
28/01:30pm 23.5 22.0 9.1 40 7.8 S 7 13 4 7 1021.4 1021.3 0.0
28/01:00pm 23.4 21.5 9.0 40 7.7 SSE 9 15 5 8 1021.7 1021.6 0.0
28/12:30pm 22.8 20.4 8.5 40 7.6 S 11 17 6 9 1022.2 1022.1 0.0
28/12:00pm 22.8 19.5 8.1 39 7.7 SE 15 24 8 13 1022.6 1022.5 0.0
28/11:30am 22.6 20.0 7.6 38 7.8 S 11 17 6 9 1023.0 1022.9 0.0
28/11:00am 21.5 18.9 7.7 41 7.1 S 11 19 6 10 1023.5 1023.4 0.0
28/10:30am 20.9 18.9 8.5 45 6.5 S 9 13 5 7 1023.7 1023.6 0.0
28/10:00am 19.8 18.7 8.5 48 5.9 S 4 9 2 5 1024.0 1023.9 0.0
28/09:30am 19.3 18.3 8.9 51 5.4 N 4 9 2 5 1024.1 1024.0 0.0
28/09:00am 18.5 16.8 11.3 63 3.9 NNW 11 13 6 7 1023.9 1023.8 0.0
28/08:30am 16.7 15.6 11.8 73 2.7 NW 9 11 5 6 1023.6 1023.5 0.0
28/08:00am 15.0 13.4 11.6 80 1.8 NW 11 13 6 7 1023.5 1023.4 0.0
28/07:30am 13.2 11.9 11.4 89 0.9 NW 9 13 5 7 1023.2 1023.1 0.0
28/07:00am 11.4 10.3 10.5 94 0.5 WNW 7 9 4 5 1022.8 1022.7 0.0
28/06:30am 9.8 8.2 8.7 93 0.5 W 7 9 4 5 1022.4 1022.3 0.0
28/06:00am 10.3 8.5 9.4 94 0.4 WNW 9 11 5 6 1022.1 1022.0 0.0
28/05:30am 9.3 8.5 8.2 93 0.5 NW 2 7 1 4 1021.8 1021.7 0.0
28/05:00am 10.0 9.0 8.9 93 0.5 WNW 4 7 2 4 1021.5 1021.4 0.0
28/04:30am 9.3 7.6 8.2 93 0.5 NW 7 9 4 5 1021.0 1020.9 0.0
28/04:00am 9.4 7.8 8.2 92 0.6 WNW 6 7 3 4 1020.8 1020.7 0.0
28/03:30am 9.8 8.4 8.7 93 0.5 W 6 7 3 4 1020.7 1020.6 0.0
28/03:00am 9.6 7.8 8.0 90 0.8 WNW 7 9 4 5 1020.6 1020.5 0.0
28/02:30am 10.2 9.1 8.5 89 0.8 W 4 6 2 3 1020.6 1020.5 0.0
28/02:00am 11.3 10.2 9.9 91 0.7 WNW 6 9 3 5 1020.5 1020.4 0.0
28/01:30am 11.2 9.9 9.9 92 0.7 NW 7 9 4 5 1020.5 1020.4 0.0
28/01:00am 10.5 9.1 8.9 90 0.8 SW 6 7 3 4 1020.4 1020.3 0.0
28/12:30am 10.9 10.3 9.0 88 0.9 W 2 7 1 4 1020.4 1020.3 0.0
28/12:00am 11.9 12.0 10.1 89 0.9 CALM 0 0 0 0 1020.5 1020.4 0.0
 
Date/Time
EST
Temp
°C
App
Temp
°C
Dew
Point
Rel
Hum
%
Delta-T
°C
Wind Press
QNH
hPa
Press
MSL
hPa
Rain
since 9 am
mm
Dir
 
Spd
km/h
Gust
km/h
Spd
kts
Gust
kts
27/11:30pm 12.1 12.3 10.7 91 0.7 CALM 0 0 0 0 1020.7 1020.6 0.0
27/11:00pm 11.6 10.5 10.0 90 0.8 NW 6 7 3 4 1020.8 1020.7 0.0
27/10:30pm 11.3 10.1 9.6 89 0.9 NW 6 9 3 5 1020.8 1020.7 0.0
27/10:00pm 11.8 11.1 10.0 89 0.9 NNW 4 7 2 4 1020.8 1020.7 0.0
27/09:30pm 11.4 10.6 9.7 89 0.9 WSW 4 7 2 4 1020.5 1020.4 0.0
27/09:00pm 11.6 11.2 9.7 88 1.0 W 2 6 1 3 1020.3 1020.2 0.0
27/08:30pm 11.7 10.3 9.6 87 1.1 WSW 7 9 4 5 1019.9 1019.8 0.0
27/08:00pm 12.0 11.2 9.6 85 1.2 WNW 4 9 2 5 1019.8 1019.7 0.0
27/07:30pm 12.6 11.5 9.8 83 1.4 WSW 6 6 3 3 1019.2 1019.1 0.0
27/07:00pm 13.2 12.4 9.8 80 1.7 SE 4 6 2 3 1018.6 1018.5 0.0
27/06:30pm 14.4 13.3 10.0 75 2.3 SE 6 7 3 4 1018.2 1018.1 0.0
27/06:00pm 15.1 13.7 9.7 70 2.8 E 7 9 4 5 1017.9 1017.8 0.0
27/05:30pm 16.3 14.1 9.5 64 3.5 E 11 13 6 7 1017.4 1017.3 0.0
27/05:00pm 19.2 15.9 9.7 54 5.0 E 17 24 9 13 1017.1 1017.0 0.0
27/04:30pm 21.4 18.1 9.6 47 6.3 E 17 22 9 12 1016.7 1016.6 0.0
27/04:00pm 22.9 20.0 8.2 39 7.8 ENE 13 17 7 9 1016.5 1016.4 0.0
27/03:30pm 23.6 21.1 8.1 37 8.2 NE 11 17 6 9 1016.3 1016.2 0.0
27/03:00pm 23.8 21.6 9.4 40 7.8 ESE 11 15 6 8 1016.1 1016.0 0.0
27/02:30pm 24.0 22.3 8.4 37 8.3 ENE 7 13 4 7 1016.2 1016.1 0.0
27/02:00pm 24.1 22.5 8.1 36 8.5 E 6 9 3 5 1016.2 1016.1 0.0
27/01:30pm 23.5 21.6 7.6 36 8.3 E 7 11 4 6 1016.3 1016.2 0.0
27/01:00pm 23.0 21.0 7.1 36 8.2 S 7 13 4 7 1016.5 1016.4 0.0
27/12:30pm 23.1 21.3 7.2 36 8.3 WSW 6 9 3 5 1016.8 1016.7 0.0
27/12:00pm 23.9 22.2 8.3 37 8.3 NNE 7 13 4 7 1017.3 1017.2 0.0
27/11:30am 22.2 20.3 6.8 37 7.9 S 6 9 3 5 1017.7 1017.6 0.0
27/11:00am 22.4 20.3 6.6 36 8.1 NE 7 17 4 9 1018.1 1018.0 0.0
27/10:30am 21.6 19.5 8.1 42 7.1 WNW 9 13 5 7 1018.5 1018.4 0.0
27/10:00am 20.9 18.7 9.2 47 6.2 NW 11 15 6 8 1018.6 1018.5 0.0
27/09:30am 19.8 17.1 8.8 49 5.8 NNW 13 17 7 9 1018.6 1018.5 0.0
27/09:00am 18.5 15.7 8.7 53 5.1 NW 13 17 7 9 1018.6 1018.5 0.0
27/08:30am 17.4 13.9 8.8 57 4.4 NW 17 22 9 12 1018.2 1018.1 0.0
27/08:00am 15.8 12.2 8.3 61 3.8 NW 17 20 9 11 1017.8 1017.7 0.0
27/07:30am 13.9 11.4 8.3 69 2.8 NW 11 15 6 8 1017.5 1017.4 0.0
27/07:00am 11.8 9.2 7.7 76 2.0 NW 11 15 6 8 1017.3 1017.2 0.0
27/06:30am 10.3 7.1 7.0 80 1.6 NW 13 15 7 8 1017.0 1016.9 0.0
27/06:00am 10.3 7.1 7.0 80 1.6 WNW 13 15 7 8 1016.6 1016.5 0.0
27/05:30am 10.5 7.3 7.0 79 1.7 WNW 13 17 7 9 1016.3 1016.2 0.0
27/05:00am 10.2 7.1 7.1 81 1.5 NW 13 15 7 8 1015.8 1015.7 0.0
27/04:30am 9.6 7.2 7.2 85 1.1 WNW 9 13 5 7 1015.4 1015.3 0.0
27/04:00am 8.8 6.4 6.8 87 0.9 WNW 9 11 5 6 1015.3 1015.2 0.0
27/03:30am 8.4 6.2 6.2 86 1.0 W 7 7 4 4 1015.1 1015.0 0.0
27/03:00am 9.2 7.0 6.3 82 1.3 NW 7 9 4 5 1015.3 1015.2 0.0
27/02:30am 10.5 7.6 6.6 77 1.8 W 11 13 6 7 1015.2 1015.1 0.0
27/02:00am 9.9 7.8 6.6 80 1.5 WNW 7 11 4 6 1015.3 1015.2 0.0
27/01:30am 10.7 8.6 6.8 77 1.8 NW 7 9 4 5 1015.4 1015.3 0.0
27/01:00am 10.7 8.6 6.6 76 1.9 NW 7 9 4 5 1015.5 1015.4 0.0
27/12:30am 11.2 8.6 6.3 72 2.3 WNW 9 11 5 6 1015.5 1015.4 0.0
27/12:00am 11.9 9.0 6.6 70 2.5 NW 11 15 6 8 1015.6 1015.5 0.0
 
Date/Time
EST
Temp
°C
App
Temp
°C
Dew
Point
Rel
Hum
%
Delta-T
°C
Wind Press
QNH
hPa
Press
MSL
hPa
Rain
since 9 am
mm
Dir
 
Spd
km/h
Gust
km/h
Spd
kts
Gust
kts
26/11:30pm 12.3 9.5 6.8 69 2.6 WNW 11 13 6 7 1015.9 1015.8 0.0
26/11:00pm 12.6 10.1 6.4 66 2.9 WNW 9 13 5 7 1016.0 1015.9 0.0
26/10:30pm 12.9 10.0 6.5 65 3.1 WNW 11 13 6 7 1015.8 1015.7 0.0
26/10:00pm 13.0 10.5 6.4 64 3.1 NW 9 13 5 7 1015.8 1015.7 0.0
26/09:30pm 14.2 11.4 6.8 61 3.6 WNW 11 17 6 9 1015.9 1015.8 0.0
26/09:00pm 13.1 10.9 6.2 63 3.3 NNW 7 11 4 6 1015.8 1015.7 0.0
26/08:30pm 14.5 11.6 6.6 59 3.8 WNW 11 13 6 7 1015.5 1015.4 0.0
26/08:00pm 14.8 12.3 6.4 57 4.1 NW 9 13 5 7 1015.0 1014.9 0.0
26/07:30pm 16.4 13.1 6.5 52 4.9 WNW 13 20 7 11 1014.5 1014.4 0.0
26/07:00pm 16.2 12.6 6.6 53 4.7 WNW 15 20 8 11 1013.8 1013.7 0.0
26/06:30pm 16.2 12.9 6.6 53 4.7 NW 13 19 7 10 1013.3 1013.3 0.0
26/06:00pm 16.8 13.5 6.3 50 5.1 WNW 13 15 7 8 1012.6 1012.6 0.0
26/05:30pm 17.5 15.1 5.1 44 6.0 NW 7 17 4 9 1012.2 1012.2 0.0
26/05:00pm 19.2 14.7 6.0 42 6.5 W 19 32 10 17 1011.3 1011.3 0.0
26/04:30pm 20.5 16.8 6.4 40 7.1 W 15 22 8 12 1011.3 1011.3 0.0
26/04:00pm 21.1 16.5 5.5 36 7.8 WNW 19 32 10 17 1011.2 1011.2 0.0
26/03:30pm 21.5 16.6 5.0 34 8.1 WNW 20 30 11 16 1010.7 1010.7 0.0
26/03:00pm 21.7 16.1 5.2 34 8.2 WNW 24 35 13 19 1010.3 1010.3 0.0
26/02:30pm 22.2 16.9 5.2 33 8.5 WNW 22 39 12 21 1010.0 1010.0 0.0
26/02:00pm 22.3 16.7 5.3 33 8.5 WNW 24 41 13 22 1009.7 1009.7 0.0
26/01:30pm 22.3 17.3 4.8 32 8.6 WNW 20 32 11 17 1009.8 1009.8 0.0
26/01:00pm 21.4 15.6 4.5 33 8.3 WNW 24 39 13 21 1009.6 1009.6 0.0
26/12:30pm 21.7 16.3 4.7 33 8.3 W 22 39 12 21 1009.8 1009.8 0.0
26/12:00pm 21.2 16.7 4.3 33 8.2 W 17 26 9 14 1010.0 1010.0 0.0
26/11:30am 20.7 15.4 3.0 31 8.3 W 20 35 11 19 1010.3 1010.3 0.0
26/11:00am 21.2 14.3 4.7 34 8.1 WNW 30 44 16 24 1010.5 1010.5 0.0
26/10:30am 20.8 15.6 3.5 32 8.2 W 20 35 11 19 1010.8 1010.8 0.0
26/10:00am 20.5 15.5 4.5 35 7.8 WNW 20 33 11 18 1010.8 1010.8 0.0
26/09:30am 19.3 12.1 3.1 34 7.6 WNW 30 43 16 23 1010.5 1010.5 0.0
26/09:00am 19.2 13.3 3.8 36 7.3 WNW 24 35 13 19 1010.9 1010.9 0.0
26/08:49am 18.6 11.4 2.9 35 7.3 WNW 30 50 16 27 1010.9 1010.9 0.0
26/08:30am 18.8 13.1 4.9 40 6.7 NW 24 37 13 20 1010.8 1010.8 0.0
26/08:00am 18.0 12.3 4.9 42 6.3 NW 24 35 13 19 1011.1 1011.1 0.0
26/07:30am 17.3 12.1 5.3 45 5.8 NW 22 30 12 16 1011.1 1011.1 0.0
26/07:00am 16.7 11.3 4.4 44 5.8 NW 22 35 12 19 1010.8 1010.8 0.0
26/06:30am 15.6 10.2 4.6 48 5.2 NW 22 28 12 15 1010.3 1010.3 0.0
26/06:00am 15.0 10.4 5.5 53 4.5 NW 19 24 10 13 1009.8 1009.8 0.0
26/05:30am 13.6 10.4 5.3 57 3.9 NW 11 15 6 8 1009.7 1009.7 0.0
26/05:00am 14.3 11.3 5.9 57 4.0 NW 11 20 6 11 1009.4 1009.4 0.0
26/04:30am 13.2 9.9 6.5 64 3.2 NW 13 15 7 8 1008.9 1008.9 0.0
26/04:00am 14.0 11.4 7.8 66 3.1 WNW 11 13 6 7 1008.6 1008.6 0.0
26/03:30am 13.7 10.9 8.5 71 2.6 W 13 17 7 9 1008.5 1008.5 0.0
26/03:00am 12.3 10.1 9.3 82 1.5 W 11 15 6 8 1008.2 1008.2 0.0
26/02:30am 11.2 9.3 8.9 86 1.1 WNW 9 11 5 6 1008.1 1008.1 0.0
26/02:00am 12.0 10.2 9.6 85 1.2 W 9 11 5 6 1008.1 1008.1 0.0
26/01:30am 12.3 10.6 9.9 85 1.2 WNW 9 11 5 6 1008.2 1008.2 0.0
26/01:00am 13.5 12.0 10.7 83 1.5 WNW 9 13 5 7 1008.1 1008.1 0.0
26/12:30am 14.5 13.3 11.5 82 1.6 WNW 9 11 5 6 1008.4 1008.4 0.0
26/12:00am 15.2 13.6 11.4 78 2.0 WNW 11 15 6 8 1008.5 1008.5 0.0
 
Date/Time
EST
Temp
°C
App
Temp
°C
Dew
Point
Rel
Hum
%
Delta-T
°C
Wind Press
QNH
hPa
Press
MSL
hPa
Rain
since 9 am
mm
Dir
 
Spd
km/h
Gust
km/h
Spd
kts
Gust
kts
25/11:30pm 15.6 14.5 11.8 78 2.1 WNW 9 11 5 6 1008.7 1008.7 0.0
25/11:00pm 15.9 14.3 11.7 76 2.3 NW 11 13 6 7 1008.8 1008.8 0.0
25/10:30pm 16.8 15.6 11.7 72 2.8 NW 9 13 5 7 1009.1 1009.1 0.0
25/10:00pm 17.2 15.6 11.5 69 3.1 W 11 17 6 9 1009.2 1009.2 0.0

Other Formats:

Comma delimited format used in spreadsheet applications
http://www.bom.gov.au/fwo/IDN60801/IDN60801.94573.axf

JavaScript Object Notation format (JSON) in row-major order
http://www.bom.gov.au/fwo/IDN60801/IDN60801.94573.json